createdAt,value
2018-12-19T00:00:24.191Z,19.8
2018-12-19T00:01:14.896Z,19.7
2018-12-19T00:02:04.964Z,19.6
2018-12-19T00:02:55.234Z,19.6
2018-12-19T00:03:45.072Z,19.5
2018-12-19T00:04:35.331Z,19.4
2018-12-19T00:05:25.136Z,19.4
2018-12-19T00:06:14.917Z,19.3
2018-12-19T00:07:05.835Z,19.3
2018-12-19T00:07:55.561Z,19.3
2018-12-19T00:08:45.360Z,19.3
2018-12-19T00:09:34.590Z,19.3
2018-12-19T00:10:24.380Z,19.3
2018-12-19T00:11:15.518Z,19.2
2018-12-19T00:12:04.468Z,19.3
2018-12-19T00:12:55.919Z,19.3
2018-12-19T00:13:45.751Z,19.3
2018-12-19T00:14:35.173Z,19.3
2018-12-19T00:32:41.483Z,23.1
2018-12-19T00:33:32.630Z,22.9
2018-12-19T00:34:21.926Z,22.8
2018-12-19T00:35:11.612Z,22.6
2018-12-19T00:36:01.484Z,22.3
2018-12-19T00:36:52.294Z,22.1
2018-12-19T00:37:42.326Z,21.9
2018-12-19T00:38:32.949Z,21.7
2018-12-19T00:39:23.340Z,21.4
2018-12-19T00:40:11.711Z,21.3
2018-12-19T00:41:52.629Z,21
2018-12-19T00:43:32.452Z,21.2
2018-12-19T00:44:23.485Z,21.1
2018-12-19T00:45:12.838Z,20.9
2018-12-19T00:46:02.638Z,20.8
2018-12-19T00:46:53.561Z,20.7
2018-12-19T00:47:43.598Z,20.6
2018-12-19T00:48:33.388Z,20.5
2018-12-19T00:49:22.617Z,20.3
2018-12-19T00:50:12.670Z,20.3
2018-12-19T00:51:02.210Z,20.1
2018-12-19T00:51:53.721Z,20.1
2018-12-19T00:52:43.590Z,20
2018-12-19T00:53:33.749Z,19.9
2018-12-19T00:54:22.238Z,19.9
2018-12-19T00:55:13.540Z,19.8
2018-12-19T00:56:03.628Z,19.8
2018-12-19T00:56:53.694Z,19.7
2018-12-19T00:57:44.270Z,19.7
2018-12-19T00:58:34.313Z,19.6
2018-12-19T00:59:24.080Z,19.6
2018-12-19T01:00:14.210Z,19.5
2018-12-19T01:01:03.655Z,19.5
2018-12-19T01:01:54.540Z,19.6
2018-12-19T01:02:43.740Z,19.5
2018-12-19T01:03:34.876Z,19.6
2018-12-19T01:04:25.008Z,19.6
2018-12-19T01:05:14.790Z,19.6
2018-12-19T01:06:04.343Z,19.6
2018-12-19T01:06:54.325Z,19.5
2018-12-19T01:07:45.422Z,19.5
2018-12-19T01:08:34.749Z,19.6
2018-12-19T01:09:24.217Z,19.5
2018-12-19T01:10:14.413Z,19.5
2018-12-19T01:11:04.135Z,19.6
2018-12-19T01:11:54.324Z,19.6
2018-12-19T01:12:45.039Z,19.6
2018-12-19T01:13:34.210Z,20.4
2018-12-19T01:14:24.833Z,21.3
2018-12-19T01:15:15.199Z,21.8
2018-12-19T01:16:05.017Z,21.9
2018-12-19T01:16:55.067Z,22.1
2018-12-19T01:17:45.925Z,22.1
2018-12-19T01:18:34.837Z,22.1
2018-12-19T01:19:24.650Z,22
2018-12-19T01:20:15.587Z,21.9
2018-12-19T01:21:05.652Z,21.9
2018-12-19T01:21:55.133Z,21.8
2018-12-19T01:22:45.206Z,21.8
2018-12-19T01:23:35.453Z,21.8
2018-12-19T01:24:24.966Z,21.7
2018-12-19T01:25:16.475Z,21.6
2018-12-19T01:26:04.802Z,21.4
2018-12-19T01:26:55.671Z,21.3
2018-12-19T01:27:45.698Z,21.1
2018-12-19T01:28:35.599Z,20.9
2018-12-19T01:29:26.289Z,20.6
2018-12-19T01:30:16.826Z,20.4
2018-12-19T01:31:06.005Z,20.3
2018-12-19T01:31:55.754Z,20.1
2018-12-19T01:32:46.432Z,19.9
2018-12-19T01:33:36.705Z,19.8
2018-12-19T01:34:25.915Z,19.8
2018-12-19T01:35:16.264Z,19.6
2018-12-19T01:36:06.567Z,19.6
2018-12-19T01:36:56.674Z,19.5
2018-12-19T01:37:46.738Z,19.4
2018-12-19T01:38:37.329Z,19.4
2018-12-19T01:39:32.309Z,19.3
2018-12-19T01:40:16.158Z,19.3
2018-12-19T01:41:06.986Z,19.3
2018-12-19T01:41:56.171Z,19.3
2018-12-19T01:42:47.088Z,19.3
2018-12-19T01:43:37.156Z,19.3
2018-12-19T01:44:26.950Z,19.3
2018-12-19T01:45:16.728Z,19.2
2018-12-19T01:46:07.031Z,19.2
2018-12-19T01:46:56.514Z,19.2
2018-12-19T01:47:47.375Z,19.2
2018-12-19T01:48:37.748Z,19.2
2018-12-19T01:49:27.488Z,19.1
2018-12-19T01:50:17.270Z,19
2018-12-19T01:51:07.592Z,18.9
2018-12-19T01:51:57.480Z,18.9
2018-12-19T01:52:46.648Z,18.8
2018-12-19T01:54:27.005Z,18.6
2018-12-19T01:55:18.167Z,18.4
2018-12-19T01:56:08.275Z,18.4
2018-12-19T01:56:58.027Z,18.3
2018-12-19T01:57:47.600Z,18.3
2018-12-19T01:58:37.914Z,18.3
2018-12-19T01:59:27.695Z,18.2
2018-12-19T02:00:18.530Z,18.3
2018-12-19T02:01:07.252Z,18.3
2018-12-19T02:01:58.672Z,18.2
2018-12-19T02:02:48.687Z,18.3
2018-12-19T02:03:39.281Z,18.3
2018-12-19T02:04:28.279Z,18.3
2018-12-19T02:05:18.027Z,18.3
2018-12-19T02:06:08.105Z,18.3
2018-12-19T02:06:58.662Z,18.3
2018-12-19T02:07:48.777Z,18.3
2018-12-19T02:08:39.136Z,18.3
2018-12-19T02:09:35.196Z,18.4
2018-12-19T02:10:18.102Z,18.4
2018-12-19T02:11:08.709Z,18.5
2018-12-19T02:11:59.584Z,18.6
2018-12-19T02:12:48.894Z,18.6
2018-12-19T02:13:38.931Z,18.6
2018-12-19T02:14:28.696Z,18.6
2018-12-19T02:15:19.239Z,18.6
2018-12-19T02:16:09.877Z,18.5
2018-12-19T02:16:59.325Z,18.5
2018-12-19T02:17:49.537Z,18.5
2018-12-19T02:18:38.978Z,18.6
2018-12-19T02:19:28.453Z,18.6
2018-12-19T02:20:17.430Z,19.3
2018-12-19T02:21:09.369Z,20
2018-12-19T02:21:59.723Z,20.3
2018-12-19T02:22:49.788Z,20.5
2018-12-19T02:23:39.251Z,20.5
2018-12-19T02:24:30.134Z,20.4
2018-12-19T02:25:19.403Z,20.4
2018-12-19T02:26:09.740Z,20.3
2018-12-19T02:27:00.291Z,20.2
2018-12-19T02:27:49.373Z,20
2018-12-19T02:28:39.903Z,19.9
2018-12-19T02:29:30.010Z,19.9
2018-12-19T02:30:19.605Z,20
2018-12-19T02:31:10.242Z,19.9
2018-12-19T02:31:59.445Z,19.8
2018-12-19T02:32:48.917Z,19.8
2018-12-19T02:33:40.267Z,19.6
2018-12-19T02:34:30.659Z,19.5
2018-12-19T02:35:20.394Z,19.4
2018-12-19T02:36:10.772Z,19.3
2018-12-19T02:37:00.249Z,19.1
2018-12-19T02:37:50.367Z,19
2018-12-19T02:38:40.137Z,19
2018-12-19T02:39:38.042Z,18.9
2018-12-19T02:40:21.076Z,18.9
2018-12-19T02:41:10.591Z,18.8
2018-12-19T02:42:00.839Z,18.8
2018-12-19T02:42:51.864Z,18.8
2018-12-19T02:44:31.502Z,18.6
2018-12-19T02:45:21.078Z,18.6
2018-12-19T02:46:11.720Z,18.6
2018-12-19T02:47:02.003Z,18.5
2018-12-19T02:47:52.613Z,18.5
2018-12-19T02:48:41.582Z,18.5
2018-12-19T02:49:31.662Z,18.5
2018-12-19T02:50:20.609Z,18.5
2018-12-19T02:51:11.725Z,18.6
2018-12-19T02:52:00.760Z,18.5
2018-12-19T02:52:51.876Z,18.5
2018-12-19T02:53:41.671Z,18.6
2018-12-19T02:54:32.032Z,18.5
2018-12-19T02:55:21.238Z,18.4
2018-12-19T02:56:12.095Z,18.4
2018-12-19T02:57:03.070Z,18.4
2018-12-19T02:57:51.920Z,18.4
2018-12-19T02:58:42.504Z,18.4
2018-12-19T02:59:32.087Z,18.4
2018-12-19T03:00:21.601Z,18.5
2018-12-19T03:01:11.812Z,18.6
2018-12-19T03:02:01.920Z,18.6
2018-12-19T03:02:52.561Z,18.6
2018-12-19T03:03:41.743Z,18.6
2018-12-19T03:04:32.480Z,18.6
2018-12-19T03:05:22.126Z,18.6
2018-12-19T03:06:11.687Z,18.6
2018-12-19T03:07:03.142Z,19.3
2018-12-19T03:07:51.622Z,19.8
2018-12-19T03:08:42.642Z,19.9
2018-12-19T03:09:32.214Z,19.9
2018-12-19T03:10:21.959Z,19.9
2018-12-19T03:11:12.850Z,19.8
2018-12-19T03:12:02.965Z,19.6
2018-12-19T03:12:53.037Z,19.5
2018-12-19T03:13:43.830Z,19.4
2018-12-19T03:14:32.567Z,19.3
2018-12-19T03:15:23.082Z,19.1
2018-12-19T03:16:12.632Z,19.2
2018-12-19T03:17:04.055Z,19.2
2018-12-19T03:17:53.901Z,19.1
2018-12-19T03:18:43.601Z,19.1
2018-12-19T03:19:33.163Z,19.1
2018-12-19T03:20:24.006Z,19.1
2018-12-19T03:21:13.277Z,19
2018-12-19T03:22:03.081Z,18.9
2018-12-19T03:22:54.766Z,18.8
2018-12-19T03:23:44.482Z,18.8
2018-12-19T03:24:33.819Z,18.8
2018-12-19T03:25:23.803Z,18.8
2018-12-19T03:27:54.246Z,18.6
2018-12-19T03:28:44.023Z,18.6
2018-12-19T03:29:34.408Z,18.6
2018-12-19T03:30:24.446Z,18.6
2018-12-19T03:31:15.398Z,18.5
2018-12-19T03:32:04.639Z,18.4
2018-12-19T03:32:55.296Z,18.4
2018-12-19T03:33:45.186Z,18.4
2018-12-19T03:34:33.968Z,18.3
2018-12-19T03:35:24.520Z,18.3
2018-12-19T03:36:15.727Z,18.3
2018-12-19T03:37:04.756Z,18.2
2018-12-19T03:37:54.681Z,18.1
2018-12-19T03:38:43.487Z,18
2018-12-19T03:39:34.285Z,17.9
2018-12-19T03:40:24.725Z,17.8
2018-12-19T03:41:14.963Z,17.7
2018-12-19T03:42:05.242Z,17.6
2018-12-19T03:42:54.968Z,17.6
2018-12-19T03:43:45.392Z,17.5
2018-12-19T03:44:36.039Z,17.5
2018-12-19T03:45:25.727Z,17.4
2018-12-19T03:46:14.958Z,17.4
2018-12-19T03:47:05.820Z,17.4
2018-12-19T03:47:55.587Z,17.4
2018-12-19T03:48:44.884Z,17.4
2018-12-19T03:49:35.293Z,17.4
2018-12-19T03:50:25.766Z,17.4
2018-12-19T03:51:15.034Z,17.4
2018-12-19T03:52:05.348Z,17.5
2018-12-19T03:52:56.942Z,17.5
2018-12-19T03:53:46.248Z,17.6
2018-12-19T03:54:37.917Z,17.6
2018-12-19T03:55:26.131Z,17.7
2018-12-19T03:56:15.430Z,17.8
2018-12-19T03:57:05.684Z,17.8
2018-12-19T03:57:55.776Z,17.8
2018-12-19T03:58:46.487Z,17.8
2018-12-19T03:59:36.236Z,17.8
2018-12-19T04:00:26.493Z,17.8
2018-12-19T04:01:15.529Z,17.9
2018-12-19T04:02:06.579Z,17.9
2018-12-19T04:02:56.919Z,17.9
2018-12-19T04:03:47.213Z,17.9
2018-12-19T04:04:36.838Z,18.1
2018-12-19T04:05:28.605Z,18.1
2018-12-19T04:06:16.587Z,18.1
2018-12-19T04:07:06.969Z,18.3
2018-12-19T04:08:46.562Z,18.9
2018-12-19T04:09:37.437Z,19
2018-12-19T04:10:27.221Z,19.1
2018-12-19T04:11:16.750Z,19
2018-12-19T04:12:07.023Z,18.9
2018-12-19T04:12:57.046Z,18.8
2018-12-19T04:13:46.816Z,18.8
2018-12-19T04:14:36.944Z,18.6
2018-12-19T04:15:27.790Z,18.4
2018-12-19T04:16:17.329Z,18.3
2018-12-19T04:17:07.144Z,18.3
2018-12-19T04:17:57.180Z,18.2
2018-12-19T04:18:46.811Z,18.2
2018-12-19T04:19:36.694Z,18.2
2018-12-19T04:20:27.023Z,18.2
2018-12-19T04:21:17.887Z,18.2
2018-12-19T04:22:07.754Z,18.2
2018-12-19T04:22:57.551Z,18.2
2018-12-19T04:23:48.100Z,18.3
2018-12-19T04:24:38.420Z,18.3
2018-12-19T04:25:28.299Z,18.3
2018-12-19T04:26:18.226Z,18.3
2018-12-19T04:27:07.864Z,18.3
2018-12-19T04:27:57.796Z,18.3
2018-12-19T04:28:47.911Z,18.3
2018-12-19T04:29:38.229Z,18.3
2018-12-19T04:30:28.373Z,18.3
2018-12-19T04:31:18.846Z,18.3
2018-12-19T04:32:08.955Z,18.3
2018-12-19T04:32:58.008Z,18.3
2018-12-19T04:33:48.240Z,18.3
2018-12-19T04:34:38.533Z,18.3
2018-12-19T04:35:29.295Z,18.2
2018-12-19T04:36:17.876Z,18.2
2018-12-19T04:37:08.225Z,18.1
2018-12-19T04:37:57.535Z,18.2
2018-12-19T04:38:47.753Z,18.2
2018-12-19T04:39:39.265Z,18.3
2018-12-19T04:40:29.553Z,18.3
2018-12-19T04:41:19.516Z,18.3
2018-12-19T04:42:09.042Z,18.4
2018-12-19T04:42:59.805Z,18.4
2018-12-19T04:43:49.793Z,18.4
2018-12-19T04:44:39.473Z,18.4
2018-12-19T05:01:56.084Z,18.3
2018-12-19T05:02:46.979Z,18.2
2018-12-19T05:03:35.654Z,18.3
2018-12-19T05:04:26.226Z,18.3
2018-12-19T05:05:16.842Z,18.3
2018-12-19T05:06:08.340Z,18.4
2018-12-19T05:06:57.331Z,18.3
2018-12-19T05:07:45.979Z,18.3
2018-12-19T05:08:37.662Z,18.3
2018-12-19T05:09:26.685Z,18.2
2018-12-19T05:10:22.063Z,18.2
2018-12-19T05:11:07.046Z,18.2
2018-12-19T05:11:57.312Z,18.1
2018-12-19T05:12:46.856Z,18.2
2018-12-19T05:13:37.756Z,18.3
2018-12-19T05:14:26.466Z,18.3
2018-12-19T05:15:17.316Z,18.2
2018-12-19T05:16:07.636Z,18.1
2018-12-19T05:16:57.613Z,18.1
2018-12-19T05:17:48.671Z,18.1
2018-12-19T05:18:39.593Z,18
2018-12-19T05:19:27.622Z,17.9
2018-12-19T05:20:17.361Z,17.8
2018-12-19T05:21:07.143Z,17.8
2018-12-19T05:21:58.008Z,17.7
2018-12-19T05:22:48.000Z,17.6
2018-12-19T05:23:38.565Z,17.5
2018-12-19T05:24:27.340Z,17.4
2018-12-19T05:25:17.375Z,17.3
2018-12-19T05:26:07.955Z,17.2
2018-12-19T05:26:58.645Z,17.2
2018-12-19T05:27:49.163Z,17.1
2018-12-19T05:28:37.855Z,17.1
2018-12-19T05:29:28.493Z,17.1
2018-12-19T05:30:18.880Z,17.1
2018-12-19T05:31:08.092Z,17.2
2018-12-19T05:31:58.350Z,17.2
2018-12-19T05:32:48.762Z,17.3
2018-12-19T05:33:39.302Z,17.3
2018-12-19T05:34:29.222Z,17.3
2018-12-19T05:35:18.978Z,17.3
2018-12-19T05:36:07.537Z,17.3
2018-12-19T05:36:59.604Z,17.3
2018-12-19T05:37:48.826Z,17.3
2018-12-19T05:38:39.058Z,17.3
2018-12-19T05:39:28.337Z,17.3
2018-12-19T05:40:25.752Z,17.3
2018-12-19T05:41:08.431Z,17.3
2018-12-19T05:41:59.044Z,17.4
2018-12-19T05:42:49.707Z,17.4
2018-12-19T05:43:39.549Z,17.5
2018-12-19T05:44:29.567Z,17.5
2018-12-19T05:45:18.754Z,17.5
2018-12-19T05:46:09.617Z,17.6
2018-12-19T05:47:00.089Z,17.6
2018-12-19T05:47:49.516Z,17.6
2018-12-19T05:48:39.506Z,17.6
2018-12-19T05:49:28.727Z,17.7
2018-12-19T05:50:19.996Z,17.7
2018-12-19T05:51:09.711Z,17.8
2018-12-19T05:51:58.884Z,17.7
2018-12-19T05:52:49.771Z,17.8
2018-12-19T05:53:39.856Z,17.8
2018-12-19T05:54:29.124Z,17.9
2018-12-19T05:55:20.516Z,17.9
2018-12-19T05:56:10.003Z,17.9
2018-12-19T05:56:59.216Z,17.9
2018-12-19T05:57:51.199Z,17.9
2018-12-19T05:58:41.006Z,17.9
2018-12-19T05:59:30.541Z,18
2018-12-19T06:00:20.993Z,17.9
2018-12-19T06:01:10.654Z,17.9
2018-12-19T06:02:00.134Z,17.9
2018-12-19T06:02:51.043Z,18
2018-12-19T06:03:41.033Z,18.1
2018-12-19T06:04:31.093Z,18.1
2018-12-19T06:05:20.366Z,18.1
2018-12-19T06:06:10.428Z,18
2018-12-19T06:07:01.003Z,18.1
2018-12-19T06:07:51.733Z,18.1
2018-12-19T06:08:40.950Z,18
2018-12-19T06:09:32.303Z,18
2018-12-19T06:10:27.073Z,18
2018-12-19T06:11:10.290Z,18.1
2018-12-19T06:12:00.902Z,18.1
2018-12-19T06:12:51.435Z,18.1
2018-12-19T06:13:41.232Z,18.2
2018-12-19T06:14:30.772Z,18.2
2018-12-19T06:15:21.310Z,18.1
2018-12-19T06:16:10.504Z,18.2
2018-12-19T06:16:59.627Z,18.3
2018-12-19T06:17:49.197Z,18.3
2018-12-19T06:18:41.197Z,18.2
2018-12-19T06:19:31.459Z,18.3
2018-12-19T06:20:21.502Z,18.4
2018-12-19T06:21:11.004Z,18.1
2018-12-19T06:22:01.082Z,18
2018-12-19T06:22:51.832Z,17.9
2018-12-19T06:23:41.289Z,17.9
2018-12-19T06:24:30.792Z,18.1
2018-12-19T06:25:22.207Z,18.2
2018-12-19T06:26:12.661Z,18.3
2018-12-19T06:27:01.811Z,18.3
2018-12-19T06:27:52.416Z,18.3
2018-12-19T06:28:42.734Z,18.3
2018-12-19T06:29:32.034Z,18.3
2018-12-19T06:30:22.040Z,18.3
2018-12-19T06:31:11.906Z,18.2
2018-12-19T06:32:02.411Z,18.2
2018-12-19T06:32:52.226Z,18.2
2018-12-19T06:33:41.788Z,18.2
2018-12-19T06:34:33.412Z,18.1
2018-12-19T06:35:22.368Z,18.1
2018-12-19T06:36:12.460Z,18.1
2018-12-19T06:37:02.523Z,18.1
2018-12-19T06:37:52.275Z,18
2018-12-19T06:38:41.878Z,18.1
2018-12-19T06:39:33.183Z,18
2018-12-19T06:40:22.390Z,18.1
2018-12-19T06:41:12.213Z,18
2018-12-19T06:42:03.475Z,17.9
2018-12-19T06:42:53.449Z,17.9
2018-12-19T06:43:43.775Z,17.8
2018-12-19T06:44:33.615Z,17.7
2018-12-19T06:45:23.880Z,17.6
2018-12-19T06:46:13.707Z,17.5
2018-12-19T06:47:03.718Z,17.4
2018-12-19T06:47:53.778Z,17.4
2018-12-19T06:48:44.102Z,17.3
2018-12-19T06:49:34.369Z,17.3
2018-12-19T06:50:23.138Z,17.1
2018-12-19T06:51:13.747Z,17.1
2018-12-19T06:52:05.677Z,17.1
2018-12-19T06:52:53.302Z,17.1
2018-12-19T06:53:44.250Z,17.1
2018-12-19T06:54:33.787Z,17.1
2018-12-19T06:55:23.245Z,17.1
2018-12-19T06:56:14.052Z,17.1
2018-12-19T06:57:03.944Z,17.2
2018-12-19T06:57:54.757Z,17.3
2018-12-19T06:58:44.272Z,17.3
2018-12-19T06:59:34.584Z,17.3
2018-12-19T07:00:24.634Z,17.3
2018-12-19T07:01:14.201Z,17.3
2018-12-19T07:02:04.182Z,17.3
2018-12-19T07:02:54.027Z,17.4
2018-12-19T07:03:45.178Z,17.4
2018-12-19T07:04:35.399Z,17.4
2018-12-19T07:05:25.012Z,17.5
2018-12-19T07:06:13.656Z,17.5
2018-12-19T07:07:04.765Z,17.6
2018-12-19T07:07:54.606Z,17.6
2018-12-19T07:08:46.487Z,17.6
2018-12-19T07:09:34.945Z,17.7
2018-12-19T07:10:25.629Z,17.7
2018-12-19T07:11:15.376Z,17.8
2018-12-19T07:12:04.891Z,17.8
2018-12-19T07:12:55.248Z,17.8
2018-12-19T07:13:45.783Z,17.8
2018-12-19T07:14:34.208Z,17.9
2018-12-19T07:15:25.696Z,17.9
2018-12-19T07:16:15.181Z,17.8
2018-12-19T07:17:06.031Z,17.9
2018-12-19T07:17:55.513Z,18
2018-12-19T07:18:45.558Z,18.1
2018-12-19T07:19:36.190Z,18.1
2018-12-19T07:20:26.191Z,18.1
2018-12-19T07:21:15.158Z,18.1
2018-12-19T07:22:05.876Z,17.8
2018-12-19T07:22:55.283Z,17.5
2018-12-19T07:23:45.916Z,17.4
2018-12-19T07:24:36.847Z,17.4
2018-12-19T07:25:25.700Z,17.5
2018-12-19T07:26:15.788Z,17.7
2018-12-19T07:27:06.489Z,17.8
2018-12-19T07:27:55.913Z,17.9
2018-12-19T07:28:45.697Z,17.8
2018-12-19T07:29:36.067Z,17.8
2018-12-19T07:30:26.077Z,17.8
2018-12-19T07:31:17.097Z,17.7
2018-12-19T07:32:05.725Z,17.7
2018-12-19T07:32:56.806Z,17.7
2018-12-19T07:33:48.170Z,17.7
2018-12-19T07:34:36.107Z,17.7
2018-12-19T07:35:27.070Z,17.6
2018-12-19T07:36:17.065Z,17.6
2018-12-19T07:37:06.819Z,17.6
2018-12-19T07:37:57.442Z,17.5
2018-12-19T07:38:46.432Z,17.6
2018-12-19T07:39:36.977Z,17.6
2018-12-19T07:40:27.576Z,17.5
2018-12-19T07:41:17.674Z,17.6
2018-12-19T07:42:06.889Z,17.6
2018-12-19T07:42:57.469Z,17.7
2018-12-19T07:43:46.702Z,17.7
2018-12-19T07:44:37.362Z,17.8
2018-12-19T07:45:28.194Z,17.8
2018-12-19T07:46:26.276Z,17.9
2018-12-19T07:47:07.584Z,17.9
2018-12-19T07:47:57.272Z,17.9
2018-12-19T07:48:47.111Z,17.9
2018-12-19T07:49:37.678Z,17.9
2018-12-19T07:50:28.227Z,18
2018-12-19T07:51:18.059Z,18
2018-12-19T07:52:07.543Z,18
2018-12-19T07:52:58.229Z,18.1
2018-12-19T07:53:48.211Z,18.1
2018-12-19T07:54:37.741Z,18.1
2018-12-19T07:55:28.693Z,18.2
2018-12-19T07:56:17.833Z,18.2
2018-12-19T07:57:08.436Z,18.3
2018-12-19T07:57:58.783Z,18.3
2018-12-19T07:58:48.071Z,18.3
2018-12-19T07:59:38.604Z,18.1
2018-12-19T08:00:34.375Z,18
2018-12-19T08:01:19.788Z,17.9
2018-12-19T08:02:08.785Z,17.9
2018-12-19T08:02:58.810Z,17.8
2018-12-19T08:03:48.866Z,17.6
2018-12-19T08:04:38.103Z,17.6
2018-12-19T08:05:35.326Z,17.4
2018-12-19T08:06:19.188Z,17.4
2018-12-19T08:07:09.773Z,17.3
2018-12-19T08:07:58.383Z,17.2
2018-12-19T08:08:48.932Z,17.1
2018-12-19T08:09:38.748Z,17.1
2018-12-19T08:10:29.387Z,17.1
2018-12-19T08:12:59.320Z,16.9
2018-12-19T08:13:49.587Z,16.9
2018-12-19T08:14:39.898Z,16.9
2018-12-19T08:16:20.082Z,17.1
2018-12-19T08:17:09.465Z,17.1
2018-12-19T08:18:00.065Z,17.1
2018-12-19T08:18:49.082Z,17.1
2018-12-19T08:19:39.128Z,17.1
2018-12-19T08:20:29.721Z,17.2
2018-12-19T08:21:19.472Z,17.2
2018-12-19T08:22:10.159Z,17.1
2018-12-19T08:23:00.151Z,17.2
2018-12-19T08:23:49.973Z,17.3
2018-12-19T08:24:40.351Z,17.3
2018-12-19T08:25:30.071Z,17.3
2018-12-19T08:26:22.506Z,17.3
2018-12-19T08:27:09.899Z,17.3
2018-12-19T08:28:01.799Z,17.4
2018-12-19T08:28:50.343Z,17.3
2018-12-19T08:29:40.366Z,17.4
2018-12-19T08:30:29.574Z,17.5
2018-12-19T08:31:20.221Z,17.4
2018-12-19T08:32:10.271Z,17.4
2018-12-19T08:32:59.781Z,17.6
2018-12-19T08:33:50.366Z,17.5
2018-12-19T08:34:40.943Z,16.9
2018-12-19T08:35:29.976Z,16.6
2018-12-19T08:36:21.401Z,16.6
2018-12-19T08:37:11.089Z,16.6
2018-12-19T08:38:01.439Z,16.8
2018-12-19T08:38:51.081Z,16.9
2018-12-19T08:40:30.048Z,17.1
2018-12-19T08:41:21.106Z,17.1
2018-12-19T08:42:10.890Z,17.1
2018-12-19T08:43:01.228Z,17.1
2018-12-19T08:44:41.212Z,16.9
2018-12-19T08:45:32.303Z,16.8
2018-12-19T08:46:23.675Z,16.8
2018-12-19T08:47:11.540Z,16.6
2018-12-19T08:48:01.585Z,16.5
2018-12-19T08:48:51.325Z,16.4
2018-12-19T08:49:41.780Z,16.3
2018-12-19T08:50:32.315Z,16.3
2018-12-19T08:51:20.987Z,16.2
2018-12-19T08:52:11.952Z,16.1
2018-12-19T08:53:02.737Z,16
2018-12-19T08:53:51.682Z,15.9
2018-12-19T08:54:42.912Z,15.9
2018-12-19T08:55:32.876Z,15.8
2018-12-19T08:56:23.701Z,15.8
2018-12-19T08:57:14.751Z,15.7
2018-12-19T08:58:03.029Z,15.6
2018-12-19T08:58:54.251Z,15.6
2018-12-19T08:59:44.393Z,15.6
2018-12-19T09:16:18.289Z,14.6
2018-12-19T09:17:08.303Z,14.5
2018-12-19T09:17:58.994Z,14.4
2018-12-19T09:18:48.154Z,14.4
2018-12-19T09:19:38.196Z,14.4
2018-12-19T09:20:28.526Z,14.3
2018-12-19T09:21:19.421Z,14.3
2018-12-19T09:22:08.379Z,14.3
2018-12-19T09:22:58.986Z,14.1
2018-12-19T09:23:49.256Z,14.1
2018-12-19T09:24:38.780Z,14.1
2018-12-19T09:25:29.144Z,14.1
2018-12-19T09:26:19.808Z,14
2018-12-19T09:27:09.540Z,13.9
2018-12-19T09:27:59.293Z,13.9
2018-12-19T09:28:49.710Z,13.9
2018-12-19T09:29:38.586Z,13.8
2018-12-19T09:30:29.475Z,13.8
2018-12-19T09:31:18.408Z,13.7
2018-12-19T09:32:09.080Z,13.7
2018-12-19T09:33:01.635Z,13.7
2018-12-19T09:33:49.147Z,13.6
2018-12-19T09:34:38.384Z,13.6
2018-12-19T09:35:29.542Z,13.5
2018-12-19T09:36:20.164Z,13.5
2018-12-19T09:37:09.459Z,13.4
2018-12-19T09:37:59.283Z,13.4
2018-12-19T09:38:50.324Z,13.4
2018-12-19T09:39:39.264Z,13.3
2018-12-19T09:40:29.601Z,13.3
2018-12-19T09:41:22.307Z,13.3
2018-12-19T09:42:10.584Z,13.2
2018-12-19T09:43:00.106Z,13.2
2018-12-19T09:43:49.988Z,13.1
2018-12-19T09:44:39.716Z,13.1
2018-12-19T09:45:30.628Z,13.1
2018-12-19T09:46:20.616Z,13
2018-12-19T09:47:10.161Z,13
2018-12-19T09:47:59.968Z,12.9
2018-12-19T09:48:49.494Z,12.9
2018-12-19T09:49:40.794Z,12.9
2018-12-19T09:50:29.599Z,12.8
2018-12-19T09:51:19.613Z,12.8
2018-12-19T09:52:10.214Z,12.8
2018-12-19T09:53:00.011Z,12.7
2018-12-19T09:53:51.368Z,12.7
2018-12-19T09:54:40.428Z,12.6
2018-12-19T09:55:29.824Z,12.6
2018-12-19T09:56:20.694Z,12.6
2018-12-19T09:57:10.820Z,12.6
2018-12-19T09:58:00.539Z,12.5
2018-12-19T09:58:51.999Z,12.5
2018-12-19T09:59:40.916Z,12.4
2018-12-19T10:00:29.951Z,12.4
2018-12-19T10:01:21.034Z,12.4
2018-12-19T10:02:10.904Z,12.4
2018-12-19T10:03:01.722Z,12.3
2018-12-19T10:03:52.301Z,12.3
2018-12-19T10:04:41.772Z,12.3
2018-12-19T10:05:32.141Z,12.3
2018-12-19T10:06:21.391Z,12.3
2018-12-19T10:07:11.986Z,12.3
2018-12-19T10:08:01.790Z,12.3
2018-12-19T10:08:52.948Z,12.3
2018-12-19T10:09:41.333Z,12.2
2018-12-19T10:10:31.941Z,12.2
2018-12-19T10:11:28.905Z,12.2
2018-12-19T10:12:11.491Z,12.1
2018-12-19T10:13:01.851Z,12.1
2018-12-19T10:13:51.605Z,12.1
2018-12-19T10:14:43.059Z,12.1
2018-12-19T10:15:32.268Z,12.1
2018-12-19T10:16:22.346Z,12.1
2018-12-19T10:17:12.381Z,12
2018-12-19T10:18:02.990Z,12
2018-12-19T10:18:52.280Z,11.9
2018-12-19T10:19:41.525Z,11.9
2018-12-19T10:20:32.944Z,11.9
2018-12-19T10:21:23.264Z,11.9
2018-12-19T10:22:12.320Z,11.9
2018-12-19T10:23:03.485Z,11.9
2018-12-19T10:23:52.625Z,11.9
2018-12-19T10:24:43.297Z,11.8
2018-12-19T10:25:32.965Z,11.8
2018-12-19T10:26:23.020Z,11.8
2018-12-19T10:27:13.362Z,11.8
2018-12-19T10:28:03.198Z,11.8
2018-12-19T10:28:53.997Z,11.8
2018-12-19T10:29:43.529Z,11.8
2018-12-19T10:30:34.102Z,11.7
2018-12-19T10:31:23.947Z,11.8
2018-12-19T10:32:14.035Z,11.8
2018-12-19T10:33:03.267Z,11.7
2018-12-19T10:33:53.257Z,11.7
2018-12-19T10:34:44.134Z,11.7
2018-12-19T10:35:33.689Z,11.7
2018-12-19T10:36:22.667Z,11.7
2018-12-19T10:37:15.521Z,11.7
2018-12-19T10:38:03.714Z,11.7
2018-12-19T10:38:54.555Z,11.7
2018-12-19T10:39:43.480Z,11.7
2018-12-19T10:40:33.705Z,11.7
2018-12-19T10:41:30.627Z,11.7
2018-12-19T10:42:14.441Z,11.6
2018-12-19T10:43:03.672Z,11.7
2018-12-19T10:43:54.486Z,11.7
2018-12-19T10:44:44.534Z,11.7
2018-12-19T10:45:33.989Z,11.6
2018-12-19T10:46:24.141Z,11.6
2018-12-19T10:47:15.329Z,11.6
2018-12-19T10:48:04.529Z,11.6
2018-12-19T10:48:54.250Z,11.6
2018-12-19T10:49:44.624Z,11.6
2018-12-19T10:50:34.118Z,11.6
2018-12-19T10:51:24.726Z,11.6
2018-12-19T10:52:14.785Z,11.6
2018-12-19T10:53:04.847Z,11.6
2018-12-19T10:53:54.621Z,11.6
2018-12-19T10:54:45.816Z,11.6
2018-12-19T10:55:35.307Z,11.6
2018-12-19T10:56:26.484Z,11.6
2018-12-19T10:57:15.195Z,11.6
2018-12-19T10:58:05.261Z,11.6
2018-12-19T10:58:55.289Z,11.5
2018-12-19T10:59:45.313Z,11.5
2018-12-19T11:00:35.376Z,11.5
2018-12-19T11:01:25.420Z,11.5
2018-12-19T11:02:15.883Z,11.5
2018-12-19T11:03:05.804Z,11.4
2018-12-19T11:03:55.279Z,11.5
2018-12-19T11:04:45.680Z,11.5
2018-12-19T11:05:36.253Z,11.5
2018-12-19T11:06:26.318Z,11.5
2018-12-19T11:07:15.490Z,11.4
2018-12-19T11:08:06.167Z,11.5
2018-12-19T11:08:55.969Z,11.4
2018-12-19T11:09:45.506Z,11.4
2018-12-19T11:10:36.033Z,11.4
2018-12-19T11:11:32.015Z,11.4
2018-12-19T11:12:16.790Z,11.4
2018-12-19T11:13:06.230Z,11.4
2018-12-19T11:13:55.152Z,11.4
2018-12-19T11:14:46.047Z,11.4
2018-12-19T11:15:35.797Z,11.3
2018-12-19T11:16:26.507Z,11.3
2018-12-19T11:17:16.797Z,11.2
2018-12-19T11:18:06.522Z,11.2
2018-12-19T11:18:56.100Z,11.1
2018-12-19T11:19:47.002Z,11.1
2018-12-19T11:20:37.002Z,11.1
2018-12-19T11:21:26.257Z,11
2018-12-19T11:22:18.080Z,11
2018-12-19T11:23:06.912Z,11
2018-12-19T11:23:55.563Z,10.9
2018-12-19T11:24:47.599Z,10.9
2018-12-19T11:25:36.797Z,10.9
2018-12-19T11:26:26.289Z,10.9
2018-12-19T11:27:17.504Z,10.9
2018-12-19T11:28:07.001Z,10.9
2018-12-19T11:28:56.752Z,10.9
2018-12-19T11:29:47.727Z,10.9
2018-12-19T11:30:37.131Z,10.9
2018-12-19T11:31:28.400Z,10.8
2018-12-19T11:32:17.579Z,10.9
2018-12-19T11:33:08.148Z,10.8
2018-12-19T11:33:57.079Z,10.8
2018-12-19T11:34:47.224Z,10.8
2018-12-19T11:35:37.214Z,10.8
2018-12-19T11:36:28.389Z,10.8
2018-12-19T11:37:17.936Z,10.8
2018-12-19T11:38:08.496Z,10.8
2018-12-19T11:38:57.488Z,10.8
2018-12-19T11:39:47.234Z,10.8
2018-12-19T11:40:37.806Z,10.9
2018-12-19T11:41:27.906Z,10.9
2018-12-19T11:42:16.835Z,10.9
2018-12-19T11:43:08.566Z,10.9
2018-12-19T11:43:58.604Z,10.9
2018-12-19T11:44:48.084Z,10.9
2018-12-19T11:45:39.586Z,10.9
2018-12-19T11:46:28.858Z,10.9
2018-12-19T11:47:18.565Z,10.9
2018-12-19T11:48:09.396Z,11
2018-12-19T11:48:58.973Z,11
2018-12-19T11:49:48.898Z,11
2018-12-19T11:50:38.843Z,11.1
2018-12-19T11:51:28.343Z,11.1
2018-12-19T11:52:19.490Z,11.1
2018-12-19T11:53:09.769Z,11.1
2018-12-19T11:53:59.603Z,11.1
2018-12-19T11:54:49.157Z,11.1
2018-12-19T11:55:39.698Z,11.2
2018-12-19T11:56:28.699Z,11.2
2018-12-19T11:57:19.530Z,11.3
2018-12-19T11:58:09.015Z,11.3
2018-12-19T11:58:59.335Z,11.3
2018-12-19T11:59:49.179Z,11.3
2018-12-19T12:00:39.767Z,11.4
2018-12-19T12:01:29.422Z,11.4
2018-12-19T12:02:19.325Z,11.4
2018-12-19T12:03:10.505Z,11.4
2018-12-19T12:04:00.060Z,11.4
2018-12-19T12:04:49.790Z,11.5
2018-12-19T12:05:40.097Z,11.6
2018-12-19T12:06:30.135Z,11.6
2018-12-19T12:07:18.622Z,11.6
2018-12-19T12:08:10.360Z,11.7